Time;durP1;ratioP1;P1;durP2;ratioP2;P2;SDS_P1;SDS_P2;PMS_P1;PMS_P2;Temp;Humidity;BMP_temperature;BMP_pressure;BME280_temperature;BME280_humidity;BME280_pressure;Samples;Min_cycle;Max_cycle;Signal;HPM_P1;HPM_P2
2022/04/29 00:00:25;;;;;;;16.48;7.45;;;;;;;;;;5040070;28;20041;-68
2022/04/29 00:02:51;;;;;;;14.35;8.23;;;;;;;;;;5037278;28;20036;-68
2022/04/29 00:05:17;;;;;;;17.90;7.32;;;;;;;;;;5034075;28;20048;-67
2022/04/29 00:07:42;;;;;;;20.00;7.78;;;;;;;;;;5037678;28;20026;-67
2022/04/29 00:10:13;;;;;;;14.43;7.25;;;;;;;;;;5038843;28;20028;-68
2022/04/29 00:12:43;;;;;;;17.70;7.15;;;;;;;;;;5035613;28;20068;-68
2022/04/29 00:15:12;;;;;;;23.00;7.32;;;;;;;;;;5034100;28;20426;-67
2022/04/29 00:17:38;;;;;;;14.95;7.00;;;;;;;;;;5030908;28;20048;-67
2022/04/29 00:20:05;;;;;;;16.55;6.85;;;;;;;;;;5034572;28;20100;-68
2022/04/29 00:22:30;;;;;;;19.25;7.55;;;;;;;;;;5026167;28;20033;-68
2022/04/29 00:24:56;;;;;;;12.82;6.65;;;;;;;;;;5051243;28;20029;-68
2022/04/29 00:27:21;;;;;;;17.35;7.63;;;;;;;;;;5032166;28;20386;-67
2022/04/29 00:29:47;;;;;;;14.50;7.82;;;;;;;;;;5027969;28;20029;-68
2022/04/29 00:32:12;;;;;;;20.63;8.50;;;;;;;;;;5028527;28;20125;-68
2022/04/29 00:34:38;;;;;;;25.10;7.75;;;;;;;;;;5038828;28;20025;-67
2022/04/29 00:37:03;;;;;;;16.20;8.35;;;;;;;;;;5032722;28;20037;-68
2022/04/29 00:39:29;;;;;;;17.38;7.78;;;;;;;;;;5033296;28;20037;-67
2022/04/29 00:41:54;;;;;;;19.50;7.57;;;;;;;;;;5029487;28;20393;-68
2022/04/29 00:44:20;;;;;;;16.10;7.72;;;;;;;;;;5032416;28;20465;-68
2022/04/29 00:46:47;;;;;;;19.45;8.48;;;;;;;;;;5033810;28;20810;-67
2022/04/29 00:49:16;;;;;;;17.15;7.40;;;;;;;;;;5032680;28;20036;-68
2022/04/29 00:51:44;;;;;;;14.63;7.65;;;;;;;;;;5042875;28;20118;-67
2022/04/29 00:54:13;;;;;;;23.23;7.57;;;;;;;;;;5032428;28;20393;-68
2022/04/29 00:56:41;;;;;;;19.85;7.45;;;;;;;;;;5062833;28;20018;-68
2022/04/29 00:59:15;;;;;;;14.20;7.82;;;;;;;;;;5032829;28;20040;-68
2022/04/29 01:01:40;;;;;;;;;;;;;;;;;;5039380;28;20061;-68
2022/04/29 01:04:06;;;;;;;15.40;7.25;;;;;;;;;;5052378;28;19924;-67
2022/04/29 01:06:32;;;;;;;15.55;7.88;;;;;;;;;;5035836;28;20035;-67
2022/04/29 01:08:57;;;;;;;20.02;8.10;;;;;;;;;;5032570;28;20466;-68
2022/04/29 01:11:24;;;;;;;18.35;8.93;;;;;;;;;;5024604;28;20038;-67
2022/04/29 01:13:51;;;;;;;14.68;7.88;;;;;;;;;;5032268;28;20052;-67
2022/04/29 01:16:18;;;;;;;22.77;8.85;;;;;;;;;;5024006;28;20041;-67
2022/04/29 01:18:45;;;;;;;23.98;8.40;;;;;;;;;;5032745;28;20030;-68
2022/04/29 01:21:10;;;;;;;21.35;9.10;;;;;;;;;;5033603;28;20068;-68
2022/04/29 01:23:36;;;;;;;30.08;9.52;;;;;;;;;;5032700;28;20118;-68
2022/04/29 01:26:02;;;;;;;18.10;8.80;;;;;;;;;;5043038;28;20147;-67
2022/04/29 01:28:30;;;;;;;27.70;8.80;;;;;;;;;;5033040;28;20033;-67
2022/04/29 01:30:59;;;;;;;18.67;8.93;;;;;;;;;;5033265;28;20041;-68
2022/04/29 01:33:26;;;;;;;18.15;8.02;;;;;;;;;;5033062;28;20091;-68
2022/04/29 01:35:51;;;;;;;16.88;8.25;;;;;;;;;;5032931;28;20033;-68
2022/04/29 01:38:17;;;;;;;19.02;8.30;;;;;;;;;;5041637;28;20049;-68
2022/04/29 01:40:43;;;;;;;24.10;8.55;;;;;;;;;;5035895;28;20061;-67
2022/04/29 01:43:08;;;;;;;20.08;8.77;;;;;;;;;;5032371;28;20065;-68
2022/04/29 01:45:33;;;;;;;16.75;7.97;;;;;;;;;;5033408;28;20077;-68
2022/04/29 01:47:59;;;;;;;23.30;8.38;;;;;;;;;;5032033;28;20095;-68
2022/04/29 01:50:26;;;;;;;16.20;8.65;;;;;;;;;;5033370;28;20087;-68
2022/04/29 01:52:51;;;;;;;27.73;9.07;;;;;;;;;;5032314;28;20030;-67
2022/04/29 01:55:17;;;;;;;21.38;8.40;;;;;;;;;;5030480;28;20032;-68
2022/04/29 01:57:43;;;;;;;22.73;8.35;;;;;;;;;;5026718;28;20481;-68
2022/04/29 02:00:10;;;;;;;23.95;9.52;;;;;;;;;;5034105;28;20044;-68
2022/04/29 02:02:36;;;;;;;17.08;8.40;;;;;;;;;;5031944;28;20465;-68
2022/04/29 02:05:01;;;;;;;12.98;7.25;;;;;;;;;;5035478;28;20048;-68
2022/04/29 02:07:26;;;;;;;20.50;7.78;;;;;;;;;;5036517;28;20037;-68
2022/04/29 02:09:54;;;;;;;18.67;7.75;;;;;;;;;;5033878;28;20033;-68
2022/04/29 02:12:19;;;;;;;21.42;7.97;;;;;;;;;;5032075;28;20119;-67
2022/04/29 02:14:44;;;;;;;20.55;8.23;;;;;;;;;;5031485;28;20084;-68
2022/04/29 02:17:11;;;;;;;19.67;7.95;;;;;;;;;;5032042;28;20025;-68
2022/04/29 02:19:37;;;;;;;19.25;8.00;;;;;;;;;;5040453;28;20060;-68
2022/04/29 02:22:05;;;;;;;14.50;7.95;;;;;;;;;;5032538;28;20040;-67
2022/04/29 02:24:31;;;;;;;21.25;7.95;;;;;;;;;;5034238;28;20025;-68
2022/04/29 02:26:59;;;;;;;22.23;8.02;;;;;;;;;;5034632;28;20104;-67
2022/04/29 02:29:25;;;;;;;23.00;8.50;;;;;;;;;;5035390;28;20033;-68
2022/04/29 02:31:52;;;;;;;17.23;7.70;;;;;;;;;;5036384;28;20040;-68
2022/04/29 02:34:17;;;;;;;28.08;8.35;;;;;;;;;;5036502;28;20034;-68
2022/04/29 02:36:43;;;;;;;19.05;7.72;;;;;;;;;;5038001;28;20041;-68
2022/04/29 02:39:09;;;;;;;18.88;7.43;;;;;;;;;;5035054;28;20032;-67
2022/04/29 02:41:35;;;;;;;13.75;7.20;;;;;;;;;;5036181;28;20076;-68
2022/04/29 02:44:00;;;;;;;19.45;8.13;;;;;;;;;;5035380;28;20048;-68
2022/04/29 02:46:25;;;;;;;22.58;7.70;;;;;;;;;;5036102;28;20376;-68
2022/04/29 02:48:51;;;;;;;16.58;7.72;;;;;;;;;;5034879;28;20029;-68
2022/04/29 02:51:16;;;;;;;21.40;7.88;;;;;;;;;;5035903;28;20049;-68
2022/04/29 02:53:42;;;;;;;14.35;6.93;;;;;;;;;;5035439;28;20376;-68
2022/04/29 02:56:08;;;;;;;15.98;7.25;;;;;;;;;;5035809;28;20033;-68
2022/04/29 02:58:33;;;;;;;18.45;7.28;;;;;;;;;;5034747;28;20496;-68
2022/04/29 03:00:59;;;;;;;16.67;7.25;;;;;;;;;;5042605;28;20045;-68
2022/04/29 03:03:24;;;;;;;19.13;7.55;;;;;;;;;;5041444;28;20366;-67
2022/04/29 03:05:49;;;;;;;27.30;8.57;;;;;;;;;;5038914;28;20046;-68
2022/04/29 03:08:15;;;;;;;20.75;7.13;;;;;;;;;;5038544;28;20342;-68
2022/04/29 03:10:40;;;;;;;23.98;7.47;;;;;;;;;;5035453;28;20029;-68
2022/04/29 03:13:06;;;;;;;17.90;7.53;;;;;;;;;;5038983;28;20523;-67
2022/04/29 03:15:33;;;;;;;21.10;7.88;;;;;;;;;;5034475;28;20131;-67
2022/04/29 03:20:43;;;;;;;18.50;7.35;;;;;;;;;;5021826;28;20044;-68
2022/04/29 03:23:09;;;;;;;25.00;8.43;;;;;;;;;;5036674;28;20060;-68
2022/04/29 03:25:35;;;;;;;19.23;7.15;;;;;;;;;;5040548;28;20694;-68
2022/04/29 03:28:00;;;;;;;12.63;7.72;;;;;;;;;;5033874;28;20107;-68
2022/04/29 03:30:26;;;;;;;16.45;6.80;;;;;;;;;;5035244;28;20092;-68
2022/04/29 03:32:54;;;;;;;24.00;8.52;;;;;;;;;;5044644;28;20041;-68
2022/04/29 03:35:19;;;;;;;17.35;8.02;;;;;;;;;;5034901;28;20104;-68
2022/04/29 03:37:45;;;;;;;18.38;7.30;;;;;;;;;;5044733;28;20202;-68
2022/04/29 03:40:13;;;;;;;17.48;7.18;;;;;;;;;;5038242;28;20037;-68
2022/04/29 03:42:38;;;;;;;21.55;8.13;;;;;;;;;;5043875;28;20034;-68
2022/04/29 03:45:04;;;;;;;20.15;7.82;;;;;;;;;;5035134;28;20507;-68
2022/04/29 03:47:30;;;;;;;18.85;7.80;;;;;;;;;;5034175;28;20549;-68
2022/04/29 03:49:55;;;;;;;21.60;8.25;;;;;;;;;;5035500;28;20025;-68
2022/04/29 03:52:21;;;;;;;18.33;8.25;;;;;;;;;;5038371;28;20056;-68
2022/04/29 03:54:46;;;;;;;15.85;7.93;;;;;;;;;;5035139;28;20048;-68
2022/04/29 03:57:11;;;;;;;19.40;8.05;;;;;;;;;;5033096;28;20496;-67
2022/04/29 03:59:37;;;;;;;19.30;7.55;;;;;;;;;;5034315;28;20077;-68
2022/04/29 04:02:02;;;;;;;17.15;7.22;;;;;;;;;;5029866;28;20489;-67
2022/04/29 04:04:28;;;;;;;16.90;7.38;;;;;;;;;;5036988;28;20032;-67
2022/04/29 04:07:00;;;;;;;14.10;7.32;;;;;;;;;;5035912;28;20029;-68
2022/04/29 04:09:26;;;;;;;18.08;6.80;;;;;;;;;;5033823;28;20045;-68
2022/04/29 04:11:51;;;;;;;19.80;7.50;;;;;;;;;;5034708;28;20087;-68
2022/04/29 04:14:18;;;;;;;18.23;7.72;;;;;;;;;;5033830;28;20025;-68
2022/04/29 04:16:47;;;;;;;18.88;8.15;;;;;;;;;;5034811;28;20041;-68
2022/04/29 04:19:12;;;;;;;19.13;8.32;;;;;;;;;;5033612;28;20104;-68
2022/04/29 04:21:39;;;;;;;16.52;7.85;;;;;;;;;;5029006;28;20124;-68
2022/04/29 04:24:05;;;;;;;17.30;8.02;;;;;;;;;;5033182;28;20109;-68
2022/04/29 04:26:32;;;;;;;16.83;8.77;;;;;;;;;;5036485;28;20544;-68
2022/04/29 04:28:57;;;;;;;13.35;7.00;;;;;;;;;;5032020;28;20083;-68
2022/04/29 04:31:24;;;;;;;16.50;7.10;;;;;;;;;;5029930;28;20489;-68
2022/04/29 04:33:50;;;;;;;15.77;6.82;;;;;;;;;;5034356;28;20029;-67
2022/04/29 04:36:16;;;;;;;23.73;7.13;;;;;;;;;;5034359;28;20389;-68
2022/04/29 04:38:42;;;;;;;14.35;7.03;;;;;;;;;;5033482;28;20040;-68
2022/04/29 04:41:08;;;;;;;16.70;6.30;;;;;;;;;;5041393;28;20029;-68
2022/04/29 04:43:35;;;;;;;12.07;5.90;;;;;;;;;;5032460;28;20099;-68
2022/04/29 04:46:01;;;;;;;12.80;6.50;;;;;;;;;;5044081;28;20392;-67
2022/04/29 04:48:26;;;;;;;15.68;7.03;;;;;;;;;;5033022;28;20034;-68
2022/04/29 04:50:53;;;;;;;14.68;6.65;;;;;;;;;;5042370;28;20041;-68
2022/04/29 04:53:19;;;;;;;12.38;6.47;;;;;;;;;;5032068;28;20065;-68
2022/04/29 04:55:44;;;;;;;13.25;6.70;;;;;;;;;;5035256;28;20111;-68
2022/04/29 04:58:10;;;;;;;16.08;7.22;;;;;;;;;;5033174;28;20042;-68
2022/04/29 05:00:36;;;;;;;21.95;7.00;;;;;;;;;;5034514;28;20107;-68
2022/04/29 05:03:01;;;;;;;18.92;6.97;;;;;;;;;;5033155;28;20040;-68
2022/04/29 05:05:27;;;;;;;14.75;6.20;;;;;;;;;;5039631;28;20028;-68
2022/04/29 05:07:52;;;;;;;12.00;6.10;;;;;;;;;;5038751;28;20611;-68
2022/04/29 05:10:18;;;;;;;14.88;7.07;;;;;;;;;;5033998;28;20057;-68
2022/04/29 05:12:47;;;;;;;15.73;7.03;;;;;;;;;;5031764;28;20048;-68
2022/04/29 05:15:16;;;;;;;13.98;6.72;;;;;;;;;;5036436;28;20111;-68
2022/04/29 05:17:43;;;;;;;11.63;5.97;;;;;;;;;;5032768;28;20104;-68
2022/04/29 05:20:10;;;;;;;17.42;6.10;;;;;;;;;;5033688;28;20073;-68
2022/04/29 05:22:36;;;;;;;13.60;6.57;;;;;;;;;;5064642;28;20073;-68
2022/04/29 05:25:01;;;;;;;12.13;5.88;;;;;;;;;;5033788;28;20032;-68
2022/04/29 05:27:27;;;;;;;16.33;6.63;;;;;;;;;;5024194;28;20116;-68
2022/04/29 05:29:52;;;;;;;12.43;5.95;;;;;;;;;;5026315;28;20494;-68
2022/04/29 05:32:18;;;;;;;14.40;6.47;;;;;;;;;;5032032;28;20037;-67
2022/04/29 05:34:44;;;;;;;12.77;5.97;;;;;;;;;;5038666;28;20095;-68
2022/04/29 05:37:10;;;;;;;10.15;5.82;;;;;;;;;;5065322;28;20038;-68
2022/04/29 05:42:21;;;;;;;10.65;5.72;;;;;;;;;;5032260;28;20095;-68
2022/04/29 05:44:47;;;;;;;13.35;5.82;;;;;;;;;;5032930;28;20061;-67
2022/04/29 05:47:13;;;;;;;11.95;5.40;;;;;;;;;;5032222;28;20065;-68
2022/04/29 05:49:38;;;;;;;12.45;5.25;;;;;;;;;;5021292;28;20465;-68
2022/04/29 05:52:05;;;;;;;13.25;6.60;;;;;;;;;;5037663;28;20095;-68
2022/04/29 05:54:31;;;;;;;12.57;5.57;;;;;;;;;;5034229;28;20034;-68
2022/04/29 05:56:57;;;;;;;12.98;6.53;;;;;;;;;;5024520;28;20104;-68
2022/04/29 05:59:23;;;;;;;13.40;5.22;;;;;;;;;;5035438;28;20029;-68
2022/04/29 06:01:48;;;;;;;11.35;5.70;;;;;;;;;;5038987;28;20046;-68
2022/04/29 06:04:13;;;;;;;12.00;5.55;;;;;;;;;;5034551;28;20029;-68
2022/04/29 06:06:39;;;;;;;12.60;5.70;;;;;;;;;;5036895;28;20033;-68
2022/04/29 06:09:04;;;;;;;9.65;5.00;;;;;;;;;;5037324;28;20495;-68
2022/04/29 06:11:30;;;;;;;11.60;5.47;;;;;;;;;;5034403;28;20052;-68
2022/04/29 06:13:55;;;;;;;9.90;5.45;;;;;;;;;;5033430;28;20045;-68
2022/04/29 06:16:21;;;;;;;10.60;4.95;;;;;;;;;;5036569;28;20437;-68
2022/04/29 06:18:47;;;;;;;10.32;5.35;;;;;;;;;;5035828;28;20033;-68
2022/04/29 06:21:13;;;;;;;13.38;5.65;;;;;;;;;;5033243;28;20042;-68
2022/04/29 06:23:38;;;;;;;11.63;5.03;;;;;;;;;;5043741;28;20392;-68
2022/04/29 06:26:04;;;;;;;8.70;4.85;;;;;;;;;;5037068;28;20034;-68
2022/04/29 06:28:29;;;;;;;13.02;5.57;;;;;;;;;;5031937;28;20050;-68
2022/04/29 06:30:55;;;;;;;16.52;6.07;;;;;;;;;;5034217;28;20105;-68
2022/04/29 06:33:21;;;;;;;11.18;5.32;;;;;;;;;;5033723;28;20044;-68
2022/04/29 06:35:50;;;;;;;17.52;5.45;;;;;;;;;;5034787;28;20030;-68
2022/04/29 06:38:16;;;;;;;16.20;6.43;;;;;;;;;;5029272;28;20477;-68
2022/04/29 06:40:42;;;;;;;15.43;6.30;;;;;;;;;;5035001;28;20087;-68
2022/04/29 06:43:08;;;;;;;20.75;6.75;;;;;;;;;;5034984;28;20068;-68
2022/04/29 06:45:33;;;;;;;16.70;7.03;;;;;;;;;;5035367;28;20042;-68
2022/04/29 06:47:59;;;;;;;12.20;6.10;;;;;;;;;;5035109;28;20025;-68
2022/04/29 06:50:24;;;;;;;9.95;6.30;;;;;;;;;;5033329;28;20064;-68
2022/04/29 06:52:49;;;;;;;16.00;6.50;;;;;;;;;;5035142;28;20053;-68
2022/04/29 06:55:15;;;;;;;15.27;6.90;;;;;;;;;;5035150;28;20392;-68
2022/04/29 06:57:40;;;;;;;13.00;6.60;;;;;;;;;;5034474;28;20588;-68
2022/04/29 07:00:08;;;;;;;15.88;7.03;;;;;;;;;;5040395;28;20045;-69
2022/04/29 07:02:33;;;;;;;8.80;5.70;;;;;;;;;;5031681;28;20044;-68
2022/04/29 07:04:59;;;;;;;12.13;6.28;;;;;;;;;;5037390;28;20029;-68
2022/04/29 07:07:28;;;;;;;17.23;6.97;;;;;;;;;;5044103;28;20525;-68
2022/04/29 07:09:54;;;;;;;14.90;6.75;;;;;;;;;;5033865;28;20026;-68
2022/04/29 07:12:19;;;;;;;15.13;6.45;;;;;;;;;;5034609;28;20040;-68
2022/04/29 07:14:45;;;;;;;11.40;6.07;;;;;;;;;;5035101;28;20114;-68
2022/04/29 07:17:10;;;;;;;14.00;6.40;;;;;;;;;;5034505;28;20116;-68
2022/04/29 07:19:39;;;;;;;12.43;6.35;;;;;;;;;;5026042;28;20461;-68
2022/04/29 07:22:05;;;;;;;15.60;7.03;;;;;;;;;;5019769;28;20081;-69
2022/04/29 07:24:31;;;;;;;15.73;6.47;;;;;;;;;;5033604;28;20053;-68
2022/04/29 07:26:57;;;;;;;15.10;6.25;;;;;;;;;;5034099;28;20038;-68
2022/04/29 07:29:22;;;;;;;13.82;6.25;;;;;;;;;;5035572;28;20112;-68
2022/04/29 07:31:48;;;;;;;17.25;6.97;;;;;;;;;;5038918;28;20044;-68
2022/04/29 07:34:13;;;;;;;15.00;7.60;;;;;;;;;;5040258;28;20041;-68
2022/04/29 07:42:09;;;;;;;20.25;7.47;;;;;;;;;;5025385;28;20125;-68
2022/04/29 07:44:34;;;;;;;19.20;8.15;;;;;;;;;;5033714;28;20052;-69
2022/04/29 07:47:00;;;;;;;21.08;8.23;;;;;;;;;;5033613;28;20073;-68
2022/04/29 07:49:26;;;;;;;17.10;7.78;;;;;;;;;;5032867;28;20068;-68
2022/04/29 07:51:51;;;;;;;15.18;7.18;;;;;;;;;;5042545;28;20029;-68
2022/04/29 07:54:16;;;;;;;17.02;8.95;;;;;;;;;;5034620;28;20040;-68
2022/04/29 07:56:42;;;;;;;14.05;7.20;;;;;;;;;;5037921;28;20029;-68
2022/04/29 07:59:08;;;;;;;12.90;7.13;;;;;;;;;;5033552;28;20032;-68
2022/04/29 08:01:38;;;;;;;16.77;7.47;;;;;;;;;;5038430;28;20930;-68
2022/04/29 08:04:04;;;;;;;15.95;7.47;;;;;;;;;;5032046;28;20511;-69
2022/04/29 08:06:30;;;;;;;13.10;7.05;;;;;;;;;;5033443;28;20034;-68
2022/04/29 08:08:55;;;;;;;19.60;7.53;;;;;;;;;;5033349;28;20152;-68
2022/04/29 08:11:21;;;;;;;13.68;6.18;;;;;;;;;;5033635;28;20488;-68
2022/04/29 08:13:47;;;;;;;17.75;6.72;;;;;;;;;;5029747;28;20064;-68
2022/04/29 08:16:12;;;;;;;17.02;7.68;;;;;;;;;;5039367;28;20021;-68
2022/04/29 08:18:38;;;;;;;18.35;6.47;;;;;;;;;;5042124;28;20036;-68
2022/04/29 08:21:04;;;;;;;15.23;6.93;;;;;;;;;;5035005;28;20030;-68
2022/04/29 08:23:29;;;;;;;17.00;7.15;;;;;;;;;;5033099;28;20564;-68
2022/04/29 08:25:56;;;;;;;17.05;7.40;;;;;;;;;;5021917;28;20033;-68
2022/04/29 08:28:23;;;;;;;17.77;6.43;;;;;;;;;;5032943;28;20036;-68
2022/04/29 08:30:48;;;;;;;19.40;6.03;;;;;;;;;;5032534;28;20113;-68
2022/04/29 08:33:15;;;;;;;12.48;6.38;;;;;;;;;;5032187;28;20156;-68
2022/04/29 08:35:41;;;;;;;18.13;6.55;;;;;;;;;;5032997;28;20098;-68
2022/04/29 08:38:10;;;;;;;14.57;5.82;;;;;;;;;;5032738;28;20104;-69
2022/04/29 08:40:46;;;;;;;13.18;5.85;;;;;;;;;;5033978;28;20093;-68
2022/04/29 08:43:13;;;;;;;14.35;6.68;;;;;;;;;;5012641;28;20091;-68
2022/04/29 08:45:40;;;;;;;12.57;6.50;;;;;;;;;;5029241;28;20029;-68
2022/04/29 08:48:06;;;;;;;12.93;6.22;;;;;;;;;;5029621;28;20385;-68
2022/04/29 08:50:32;;;;;;;10.23;5.78;;;;;;;;;;5027625;28;20048;-68
2022/04/29 08:52:58;;;;;;;17.80;6.47;;;;;;;;;;5025352;28;20038;-68
2022/04/29 09:01:00;;;;;;;16.30;6.65;;;;;;;;;;5029252;28;20064;-68
2022/04/29 09:03:25;;;;;;;19.85;6.45;;;;;;;;;;5029443;28;20412;-68
2022/04/29 09:05:51;;;;;;;16.38;6.63;;;;;;;;;;5029017;28;20044;-68
2022/04/29 09:08:19;;;;;;;15.85;6.28;;;;;;;;;;5029212;28;20416;-68
2022/04/29 09:11:05;;;;;;;12.95;6.68;;;;;;;;;;5029868;28;20037;-68
2022/04/29 09:13:32;;;;;;;16.30;6.93;;;;;;;;;;5029239;28;20095;-68
2022/04/29 09:16:00;;;;;;;14.43;6.35;;;;;;;;;;5027365;28;20095;-68
2022/04/29 09:18:37;;;;;;;16.05;6.28;;;;;;;;;;5029467;28;20040;-68
2022/04/29 09:21:10;;;;;;;16.38;6.53;;;;;;;;;;5022703;28;20041;-68
2022/04/29 09:23:38;;;;;;;12.20;6.20;;;;;;;;;;5028707;28;20417;-68
2022/04/29 09:26:09;;;;;;;17.85;6.30;;;;;;;;;;5031232;28;20034;-69
2022/04/29 09:28:35;;;;;;;13.30;5.88;;;;;;;;;;5029038;28;20066;-68
2022/04/29 09:31:02;;;;;;;17.20;6.28;;;;;;;;;;5030780;28;20091;-69
2022/04/29 09:33:28;;;;;;;9.57;5.05;;;;;;;;;;5028414;28;20129;-68
2022/04/29 09:35:55;;;;;;;13.32;6.20;;;;;;;;;;5029671;28;20044;-68
2022/04/29 09:41:05;;;;;;;17.05;5.97;;;;;;;;;;5022181;28;20052;-68
2022/04/29 09:43:34;;;;;;;12.02;6.03;;;;;;;;;;5029436;28;20048;-69
2022/04/29 09:46:11;;;;;;;15.20;6.90;;;;;;;;;;5026957;28;20087;-68
2022/04/29 09:49:02;;;;;;;16.95;6.10;;;;;;;;;;5028794;28;20045;-68
2022/04/29 09:51:38;;;;;;;11.88;5.53;;;;;;;;;;5028946;28;20051;-68
2022/04/29 09:54:39;;;;;;;10.20;4.13;;;;;;;;;;5029253;28;20120;-69
2022/04/29 09:57:10;;;;;;;13.63;5.10;;;;;;;;;;5038518;28;20559;-68
2022/04/29 09:59:38;;;;;;;12.50;4.10;;;;;;;;;;5027343;28;20108;-68
2022/04/29 10:02:05;;;;;;;13.32;3.95;;;;;;;;;;5029072;28;20041;-68
2022/04/29 10:04:34;;;;;;;10.20;3.90;;;;;;;;;;5028382;28;20056;-68
2022/04/29 10:07:03;;;;;;;9.68;4.13;;;;;;;;;;5028166;28;20025;-68
2022/04/29 10:09:32;;;;;;;10.27;4.57;;;;;;;;;;5028650;28;20086;-69
2022/04/29 10:12:00;;;;;;;10.80;4.80;;;;;;;;;;5025512;28;20045;-68
2022/04/29 10:14:28;;;;;;;13.52;4.80;;;;;;;;;;5028393;28;20034;-68
2022/04/29 10:22:32;;;;;;;9.52;4.50;;;;;;;;;;5028438;28;20511;-68
2022/04/29 10:24:57;;;;;;;9.38;3.60;;;;;;;;;;5028813;28;20163;-68
2022/04/29 10:27:23;;;;;;;9.10;5.07;;;;;;;;;;5028809;28;20112;-68
2022/04/29 10:29:48;;;;;;;10.30;5.13;;;;;;;;;;5044635;28;20385;-68
2022/04/29 10:32:14;;;;;;;9.48;4.60;;;;;;;;;;5059827;28;20508;-68
2022/04/29 10:34:39;;;;;;;10.57;5.25;;;;;;;;;;5028159;28;20044;-68
2022/04/29 10:37:13;;;;;;;12.88;5.32;;;;;;;;;;5028481;28;20053;-69
2022/04/29 10:39:39;;;;;;;;;;;;;;;;;;5025399;28;20033;-68
2022/04/29 10:42:08;;;;;;;13.68;5.75;;;;;;;;;;5028460;28;19924;-68
2022/04/29 10:44:34;;;;;;;14.95;5.43;;;;;;;;;;5028959;28;20124;-68
2022/04/29 10:47:31;;;;;;;11.10;4.93;;;;;;;;;;5031558;28;20580;-68
2022/04/29 10:50:28;;;;;;;13.82;5.80;;;;;;;;;;5031333;28;20110;-68
2022/04/29 10:53:02;;;;;;;12.20;7.05;;;;;;;;;;5027511;28;20472;-68
2022/04/29 10:55:27;;;;;;;10.05;4.90;;;;;;;;;;5036933;28;20311;-68
2022/04/29 10:57:56;;;;;;;20.38;6.65;;;;;;;;;;5032429;28;20445;-68
2022/04/29 11:00:23;;;;;;;14.50;6.25;;;;;;;;;;5031181;28;20057;-68
2022/04/29 11:02:48;;;;;;;11.25;5.65;;;;;;;;;;5031569;28;20370;-68
2022/04/29 11:05:34;;;;;;;12.13;5.68;;;;;;;;;;5025433;28;20035;-69
2022/04/29 11:08:09;;;;;;;13.50;5.40;;;;;;;;;;5031218;28;20041;-69
2022/04/29 11:10:55;;;;;;;12.27;5.70;;;;;;;;;;5031343;28;20028;-69
2022/04/29 11:13:22;;;;;;;12.30;5.47;;;;;;;;;;5019923;28;20048;-68
2022/04/29 11:15:48;;;;;;;13.02;6.15;;;;;;;;;;5031452;28;20033;-69
2022/04/29 11:18:15;;;;;;;9.63;5.10;;;;;;;;;;5031896;28;20125;-68
2022/04/29 11:20:43;;;;;;;14.23;5.28;;;;;;;;;;5027406;28;20406;-68
2022/04/29 11:25:52;;;;;;;14.60;5.78;;;;;;;;;;5031327;28;20830;-69
2022/04/29 11:28:18;;;;;;;11.40;5.35;;;;;;;;;;5032160;28;20045;-68
2022/04/29 11:30:45;;;;;;;13.35;5.07;;;;;;;;;;5031131;28;20049;-68
2022/04/29 11:33:10;;;;;;;10.95;5.35;;;;;;;;;;5031336;28;20030;-69
2022/04/29 11:35:36;;;;;;;11.90;4.75;;;;;;;;;;5026343;28;20489;-68
2022/04/29 11:38:01;;;;;;;12.55;6.07;;;;;;;;;;5030831;28;20043;-68
2022/04/29 11:40:27;;;;;;;18.52;5.60;;;;;;;;;;5043612;28;20030;-68
2022/04/29 11:42:53;;;;;;;11.18;5.70;;;;;;;;;;5030655;28;20034;-68
2022/04/29 11:45:22;;;;;;;14.07;6.38;;;;;;;;;;5027497;28;20034;-68
2022/04/29 11:47:48;;;;;;;12.60;5.85;;;;;;;;;;5029986;28;20041;-68
2022/04/29 11:50:13;;;;;;;12.43;5.65;;;;;;;;;;5030808;28;20047;-68
2022/04/29 11:52:39;;;;;;;18.40;6.30;;;;;;;;;;5028193;28;20048;-69
2022/04/29 11:55:14;;;;;;;16.02;6.47;;;;;;;;;;5030756;28;20545;-68
2022/04/29 11:57:43;;;;;;;9.82;5.55;;;;;;;;;;5029548;28;20402;-68
2022/04/29 12:00:09;;;;;;;17.92;6.22;;;;;;;;;;5030635;28;20080;-68
2022/04/29 12:02:35;;;;;;;16.40;5.40;;;;;;;;;;5028496;28;20076;-68
2022/04/29 12:05:06;;;;;;;8.05;5.03;;;;;;;;;;5030709;28;20054;-69
2022/04/29 12:07:48;;;;;;;13.38;6.25;;;;;;;;;;5030859;28;20029;-68
2022/04/29 12:10:17;;;;;;;11.13;6.07;;;;;;;;;;5032330;28;20033;-68
2022/04/29 12:12:42;;;;;;;9.75;5.47;;;;;;;;;;5034920;28;20045;-68
2022/04/29 12:15:10;;;;;;;13.48;5.07;;;;;;;;;;5028590;28;20036;-68
2022/04/29 12:17:40;;;;;;;16.30;4.70;;;;;;;;;;5051974;28;20079;-68
2022/04/29 12:20:09;;;;;;;11.23;5.50;;;;;;;;;;5028489;28;20058;-68
2022/04/29 12:22:37;;;;;;;8.85;4.70;;;;;;;;;;5030708;28;20385;-68
2022/04/29 12:25:20;;;;;;;8.45;5.10;;;;;;;;;;5030744;28;20489;-68
2022/04/29 12:27:46;;;;;;;12.07;4.72;;;;;;;;;;5029425;28;20047;-68
2022/04/29 12:36:06;;;;;;;9.52;5.30;;;;;;;;;;5030118;28;20508;-68
2022/04/29 12:38:35;;;;;;;;;;;;;;;;;;5031146;28;20030;-68
2022/04/29 12:41:33;;;;;;;9.23;5.32;;;;;;;;;;5028339;28;19921;-68
2022/04/29 12:45:03;;;;;;;12.82;4.78;;;;;;;;;;5031748;28;20577;-68
2022/04/29 12:47:01;;;;;;;10.75;5.13;;;;;;;;;;5023472;28;20563;-68
2022/04/29 12:49:27;;;;;;;16.35;5.25;;;;;;;;;;5029397;28;20367;-69
2022/04/29 12:51:59;;;;;;;9.70;4.70;;;;;;;;;;5026551;28;20053;-69
2022/04/29 12:54:27;;;;;;;8.32;4.63;;;;;;;;;;5030544;28;20038;-69
2022/04/29 12:56:52;;;;;;;9.90;4.78;;;;;;;;;;5028725;28;20045;-68
2022/04/29 12:59:22;;;;;;;8.95;4.72;;;;;;;;;;5029220;28;20033;-69
2022/04/29 13:01:47;;;;;;;13.43;5.65;;;;;;;;;;5032236;28;20042;-68
2022/04/29 13:04:13;;;;;;;11.02;5.55;;;;;;;;;;5033815;28;20033;-68
2022/04/29 13:06:38;;;;;;;10.27;4.85;;;;;;;;;;5029500;28;20121;-69
2022/04/29 13:09:03;;;;;;;11.70;5.18;;;;;;;;;;5029507;28;20033;-69
2022/04/29 13:11:30;;;;;;;10.15;4.85;;;;;;;;;;5030478;28;20068;-68
2022/04/29 13:13:56;;;;;;;12.10;5.13;;;;;;;;;;5023170;28;20045;-69
2022/04/29 13:16:22;;;;;;;11.82;4.57;;;;;;;;;;5047398;28;20381;-69
2022/04/29 13:18:48;;;;;;;10.20;5.05;;;;;;;;;;5028935;28;20063;-69
2022/04/29 13:21:15;;;;;;;10.05;5.65;;;;;;;;;;5033403;28;20046;-69
2022/04/29 13:23:45;;;;;;;9.80;5.03;;;;;;;;;;5029368;28;20045;-68
2022/04/29 13:26:13;;;;;;;12.18;5.03;;;;;;;;;;5031808;28;20152;-68
2022/04/29 13:28:39;;;;;;;10.65;5.40;;;;;;;;;;5027715;28;20098;-68
2022/04/29 13:31:05;;;;;;;10.35;4.82;;;;;;;;;;5029152;28;20033;-69
2022/04/29 13:33:30;;;;;;;11.95;4.70;;;;;;;;;;5028696;28;20037;-68
2022/04/29 13:35:57;;;;;;;12.00;5.00;;;;;;;;;;5032994;28;20562;-69
2022/04/29 13:38:23;;;;;;;10.90;4.10;;;;;;;;;;5032264;28;20059;-68
2022/04/29 13:40:51;;;;;;;11.48;4.22;;;;;;;;;;5023974;28;20041;-69
2022/04/29 13:43:18;;;;;;;9.73;3.92;;;;;;;;;;5029801;28;20044;-69
2022/04/29 13:45:47;;;;;;;11.25;4.80;;;;;;;;;;5031715;28;20134;-68
2022/04/29 13:48:16;;;;;;;13.05;4.93;;;;;;;;;;5031781;28;20479;-68
2022/04/29 13:50:42;;;;;;;10.27;4.88;;;;;;;;;;5030066;28;20370;-68
2022/04/29 13:53:08;;;;;;;9.18;4.78;;;;;;;;;;5024933;28;20461;-69
2022/04/29 13:55:46;;;;;;;11.20;4.78;;;;;;;;;;5030655;28;20037;-69
2022/04/29 13:58:12;;;;;;;14.70;5.43;;;;;;;;;;5028378;28;20041;-69
2022/04/29 14:00:38;;;;;;;11.75;5.43;;;;;;;;;;5030215;28;20053;-68
2022/04/29 14:03:04;;;;;;;13.80;5.60;;;;;;;;;;5025374;28;20030;-68
2022/04/29 14:05:30;;;;;;;9.90;6.15;;;;;;;;;;5029149;28;20160;-69
2022/04/29 14:07:56;;;;;;;14.00;5.43;;;;;;;;;;5030667;28;20136;-68
2022/04/29 14:10:22;;;;;;;9.10;4.65;;;;;;;;;;5037550;28;20126;-69
2022/04/29 14:12:47;;;;;;;12.15;5.00;;;;;;;;;;5028808;28;20484;-69
2022/04/29 14:15:13;;;;;;;11.38;5.15;;;;;;;;;;5025988;28;20037;-68
2022/04/29 14:17:38;;;;;;;9.70;5.00;;;;;;;;;;5028764;28;20052;-68
2022/04/29 14:20:06;;;;;;;9.52;4.40;;;;;;;;;;5029870;28;20042;-69
2022/04/29 14:22:31;;;;;;;11.45;4.75;;;;;;;;;;5031212;28;20049;-68
2022/04/29 14:24:57;;;;;;;8.95;5.03;;;;;;;;;;5050089;28;20033;-69
2022/04/29 14:27:24;;;;;;;8.00;4.18;;;;;;;;;;5028285;28;20033;-68
2022/04/29 14:29:49;;;;;;;7.07;4.05;;;;;;;;;;5034578;28;20477;-68
2022/04/29 14:32:14;;;;;;;10.07;4.40;;;;;;;;;;5032433;28;20032;-68
2022/04/29 14:34:41;;;;;;;9.73;4.00;;;;;;;;;;5036334;28;20537;-68
2022/04/29 14:37:07;;;;;;;13.15;4.82;;;;;;;;;;5041656;28;20045;-68
2022/04/29 14:39:33;;;;;;;10.82;4.88;;;;;;;;;;5035871;28;20033;-69
2022/04/29 14:41:58;;;;;;;8.32;4.82;;;;;;;;;;5032593;28;20042;-68
2022/04/29 14:44:25;;;;;;;7.78;4.90;;;;;;;;;;5029429;28;20089;-68
2022/04/29 14:46:51;;;;;;;9.63;4.57;;;;;;;;;;5030056;28;20041;-69
2022/04/29 14:49:17;;;;;;;7.07;3.50;;;;;;;;;;5033316;28;20032;-69
2022/04/29 14:51:43;;;;;;;9.55;4.47;;;;;;;;;;5030862;28;20029;-68
2022/04/29 14:54:08;;;;;;;7.93;4.22;;;;;;;;;;5032488;28;20116;-68
2022/04/29 14:56:34;;;;;;;8.23;4.18;;;;;;;;;;5032289;28;20041;-69
2022/04/29 14:59:00;;;;;;;9.52;5.03;;;;;;;;;;5032309;28;20046;-68
2022/04/29 15:01:28;;;;;;;7.25;3.45;;;;;;;;;;5031682;28;20160;-68
2022/04/29 15:03:53;;;;;;;8.57;4.35;;;;;;;;;;5031774;28;20033;-68
2022/04/29 15:06:19;;;;;;;9.10;4.10;;;;;;;;;;5031346;28;20489;-68